createdAt,value
2022-08-09T00:00:00.601Z,17.46
2022-08-09T00:02:28.648Z,17.41
2022-08-09T00:05:00.753Z,17.40
2022-08-09T00:07:44.897Z,17.41
2022-08-09T00:10:11.831Z,17.36
2022-08-09T00:12:51.513Z,17.43
2022-08-09T00:15:19.060Z,17.37
2022-08-09T00:18:10.810Z,17.32
2022-08-09T00:20:32.762Z,17.26
2022-08-09T00:23:53.975Z,17.23
2022-08-09T00:25:51.715Z,17.26
2022-08-09T00:28:19.310Z,17.23
2022-08-09T00:30:50.380Z,17.20
2022-08-09T00:33:17.044Z,17.26
2022-08-09T00:35:43.865Z,17.21
2022-08-09T00:38:12.605Z,17.20
2022-08-09T00:40:52.990Z,17.22
2022-08-09T00:44:10.516Z,17.23
2022-08-09T00:46:10.027Z,17.22
2022-08-09T00:48:37.060Z,17.20
2022-08-09T00:51:11.961Z,17.18
2022-08-09T00:53:39.949Z,17.16
2022-08-09T00:56:10.000Z,17.14
2022-08-09T00:58:36.902Z,17.12
2022-08-09T01:01:15.916Z,17.12
2022-08-09T01:03:54.973Z,17.13
2022-08-09T01:06:35.235Z,17.16
2022-08-09T01:09:40.088Z,17.10
2022-08-09T01:12:18.997Z,17.03
2022-08-09T01:14:57.650Z,16.98
2022-08-09T01:17:34.004Z,16.98
2022-08-09T01:20:26.940Z,17.00
2022-08-09T01:24:01.291Z,16.96
2022-08-09T01:26:02.264Z,16.93
2022-08-09T01:28:30.153Z,16.93
2022-08-09T01:30:59.887Z,16.91
2022-08-09T01:33:28.511Z,16.91
2022-08-09T01:36:03.945Z,16.85
2022-08-09T01:38:33.036Z,16.81
2022-08-09T01:41:05.218Z,16.83
2022-08-09T01:43:51.218Z,16.82
2022-08-09T01:46:47.057Z,16.78
2022-08-09T01:49:16.133Z,16.76
2022-08-09T01:51:53.708Z,16.78
2022-08-09T01:54:33.370Z,16.74
2022-08-09T01:57:05.068Z,16.75
2022-08-09T01:59:33.953Z,16.75
2022-08-09T02:02:18.109Z,16.72
2022-08-09T02:04:49.113Z,16.73
2022-08-09T02:08:39.035Z,16.70
2022-08-09T02:10:11.312Z,16.64
2022-08-09T02:12:39.179Z,16.64
2022-08-09T02:15:07.865Z,16.61
2022-08-09T02:18:00.041Z,16.59
2022-08-09T02:20:26.438Z,16.59
2022-08-09T02:23:09.429Z,16.56
2022-08-09T02:25:42.523Z,16.57
2022-08-09T02:28:19.268Z,16.52
2022-08-09T02:30:49.856Z,16.53
2022-08-09T02:33:58.385Z,16.51
2022-08-09T02:36:33.429Z,16.53
2022-08-09T02:39:03.613Z,16.53
2022-08-09T02:41:44.888Z,16.52
2022-08-09T02:44:29.495Z,16.56
2022-08-09T02:46:58.536Z,16.52
2022-08-09T02:49:40.983Z,16.50
2022-08-09T02:52:12.540Z,16.54
2022-08-09T02:54:54.265Z,16.49
2022-08-09T02:57:25.480Z,16.51
2022-08-09T03:00:11.254Z,16.47
2022-08-09T03:02:58.514Z,16.48
2022-08-09T03:05:27.097Z,16.49
2022-08-09T03:07:55.143Z,16.49
2022-08-09T03:10:22.363Z,16.47
2022-08-09T03:12:52.158Z,16.52
2022-08-09T03:15:20.794Z,16.50
2022-08-09T03:17:53.899Z,16.52
2022-08-09T03:20:29.499Z,16.47
2022-08-09T03:23:00.309Z,16.45
2022-08-09T03:25:57.714Z,16.46
2022-08-09T03:28:27.238Z,16.50
2022-08-09T03:30:55.135Z,16.49
2022-08-09T03:33:22.347Z,16.51
2022-08-09T03:36:16.069Z,16.51
2022-08-09T03:38:42.168Z,16.46
2022-08-09T03:41:15.554Z,16.43
2022-08-09T03:44:03.442Z,16.41
2022-08-09T03:46:31.584Z,16.43
2022-08-09T03:48:59.717Z,16.41
2022-08-09T03:51:57.277Z,16.38
2022-08-09T03:54:18.744Z,16.49
2022-08-09T03:56:58.184Z,16.44
2022-08-09T03:59:27.434Z,16.45
2022-08-09T04:02:10.460Z,16.46
2022-08-09T04:04:38.758Z,16.40
2022-08-09T04:07:06.044Z,16.39
2022-08-09T04:09:48.392Z,16.46
2022-08-09T04:12:46.234Z,16.49
2022-08-09T04:15:29.371Z,16.41
2022-08-09T04:18:01.106Z,16.39
2022-08-09T04:20:27.756Z,16.35
2022-08-09T04:22:55.626Z,16.39
2022-08-09T04:25:22.637Z,16.43
2022-08-09T04:27:49.613Z,16.44
2022-08-09T04:30:20.951Z,16.41
2022-08-09T04:32:50.429Z,16.40
2022-08-09T04:35:17.312Z,16.44
2022-08-09T04:37:48.447Z,16.47
2022-08-09T04:40:28.811Z,16.54
2022-08-09T04:43:02.453Z,16.55
2022-08-09T04:45:30.735Z,16.62
2022-08-09T04:48:03.146Z,16.73
2022-08-09T04:50:35.058Z,16.77
2022-08-09T04:53:11.502Z,16.80
2022-08-09T04:55:57.268Z,16.91
2022-08-09T04:58:25.714Z,17.00
2022-08-09T05:00:52.729Z,17.07
2022-08-09T05:03:40.932Z,17.13
2022-08-09T05:06:08.858Z,17.12
2022-08-09T05:08:35.634Z,17.17
2022-08-09T05:11:03.291Z,17.32
2022-08-09T05:13:33.953Z,17.45
2022-08-09T05:16:05.620Z,17.50
2022-08-09T05:18:38.209Z,17.63
2022-08-09T05:21:19.074Z,17.75
2022-08-09T05:23:55.427Z,17.81
2022-08-09T05:26:36.592Z,17.92
2022-08-09T05:29:17.389Z,17.98
2022-08-09T05:31:46.657Z,18.12
2022-08-09T05:34:17.561Z,18.28
2022-08-09T05:36:47.088Z,18.37
2022-08-09T05:39:29.032Z,18.45
2022-08-09T05:42:01.691Z,18.51
2022-08-09T05:44:32.647Z,18.65
2022-08-09T05:47:01.397Z,18.75
2022-08-09T05:50:30.610Z,19.03
2022-08-09T05:52:20.240Z,19.14
2022-08-09T05:54:49.176Z,19.24
2022-08-09T05:57:17.561Z,19.46
2022-08-09T05:59:45.984Z,19.92
2022-08-09T06:02:16.973Z,20.21
2022-08-09T06:04:45.901Z,20.44
2022-08-09T06:07:21.929Z,20.58
2022-08-09T06:10:02.488Z,20.96
2022-08-09T06:12:27.727Z,20.88
2022-08-09T06:14:54.376Z,20.59
2022-08-09T06:17:21.008Z,20.45
2022-08-09T06:19:47.628Z,20.25
2022-08-09T06:22:15.775Z,20.67
2022-08-09T06:24:43.633Z,20.88
2022-08-09T06:27:10.294Z,20.96
2022-08-09T06:29:48.053Z,21.31
2022-08-09T06:33:00.212Z,21.80
2022-08-09T06:35:11.127Z,22.24
2022-08-09T06:37:50.812Z,22.72
2022-08-09T06:40:25.472Z,23.50
2022-08-09T06:42:53.239Z,23.76
2022-08-09T06:46:06.241Z,23.79
2022-08-09T06:48:07.648Z,23.76
2022-08-09T06:50:35.795Z,23.62
2022-08-09T06:53:02.714Z,23.73
2022-08-09T06:55:32.059Z,23.87
2022-08-09T06:58:01.818Z,23.83
2022-08-09T07:00:49.991Z,23.77
2022-08-09T07:03:18.191Z,23.69
2022-08-09T07:05:58.620Z,23.90
2022-08-09T07:08:30.921Z,24.13
2022-08-09T07:10:57.547Z,24.37
2022-08-09T07:13:28.225Z,24.55
2022-08-09T07:16:43.302Z,24.91
2022-08-09T07:18:43.486Z,25.15
2022-08-09T07:21:10.334Z,25.15
2022-08-09T07:23:46.752Z,24.97
2022-08-09T07:26:25.266Z,25.35
2022-08-09T07:29:09.391Z,25.41
2022-08-09T07:31:45.854Z,25.29
2022-08-09T07:34:20.179Z,25.12
2022-08-09T07:36:49.347Z,25.52
2022-08-09T07:39:20.162Z,25.50
2022-08-09T07:42:03.031Z,25.60
2022-08-09T07:44:32.968Z,25.66
2022-08-09T07:47:18.656Z,25.29
2022-08-09T07:50:04.368Z,25.47
2022-08-09T07:52:33.086Z,25.76
2022-08-09T07:55:03.967Z,25.45
2022-08-09T07:57:36.363Z,25.68
2022-08-09T08:00:05.076Z,26.09
2022-08-09T08:02:36.091Z,26.45
2022-08-09T08:05:18.015Z,26.52
2022-08-09T08:08:43.597Z,26.41
2022-08-09T08:10:34.380Z,26.47
2022-08-09T08:13:01.507Z,26.35
2022-08-09T08:15:37.460Z,26.26
2022-08-09T08:18:04.610Z,25.80
2022-08-09T08:20:33.073Z,26.09
2022-08-09T08:23:15.841Z,26.32
2022-08-09T08:25:46.169Z,26.44
2022-08-09T08:28:18.221Z,26.53
2022-08-09T08:30:52.475Z,26.71
2022-08-09T08:33:23.833Z,26.74
2022-08-09T08:35:59.793Z,26.90
2022-08-09T08:38:29.170Z,26.69
2022-08-09T08:40:56.985Z,26.61
2022-08-09T08:43:24.080Z,27.12
2022-08-09T08:46:10.070Z,27.02
2022-08-09T08:48:51.223Z,27.02
2022-08-09T08:51:18.811Z,26.97
2022-08-09T08:54:03.479Z,26.31
2022-08-09T08:56:37.631Z,26.60
2022-08-09T08:59:19.473Z,26.90
2022-08-09T09:01:52.886Z,26.86
2022-08-09T09:04:27.030Z,26.91
2022-08-09T09:06:57.383Z,27.18
2022-08-09T09:09:58.613Z,27.44
2022-08-09T09:12:16.952Z,27.46
2022-08-09T09:14:44.858Z,27.83
2022-08-09T09:17:13.002Z,27.89
2022-08-09T09:19:43.892Z,27.72
2022-08-09T09:22:16.148Z,27.42
2022-08-09T09:24:57.725Z,27.20
2022-08-09T09:28:06.930Z,26.52
2022-08-09T09:30:41.360Z,26.14
2022-08-09T09:33:15.253Z,26.09
2022-08-09T09:36:02.411Z,26.80
2022-08-09T09:38:43.853Z,26.93
2022-08-09T09:41:49.469Z,27.29
2022-08-09T09:44:25.301Z,27.94
2022-08-09T09:46:56.481Z,28.27
2022-08-09T09:49:56.325Z,28.75
2022-08-09T09:52:33.306Z,28.64
2022-08-09T09:55:27.632Z,28.03
2022-08-09T09:58:19.296Z,28.66
2022-08-09T10:00:55.693Z,29.07
2022-08-09T10:03:57.631Z,29.47
2022-08-09T10:06:28.013Z,29.04
2022-08-09T10:09:11.813Z,28.24
2022-08-09T10:12:14.864Z,27.38
2022-08-09T10:14:48.499Z,27.08
2022-08-09T10:17:40.203Z,26.98
2022-08-09T10:20:27.606Z,26.55
2022-08-09T10:23:17.298Z,26.93
2022-08-09T10:26:07.982Z,27.80
2022-08-09T10:28:35.858Z,27.90
2022-08-09T10:34:09.823Z,26.75
2022-08-09T10:36:37.605Z,26.54
2022-08-09T10:39:13.935Z,26.74
2022-08-09T10:41:42.998Z,27.10
2022-08-09T10:44:09.930Z,27.62
2022-08-09T10:47:07.545Z,28.16
2022-08-09T10:50:18.088Z,28.50
2022-08-09T10:53:04.569Z,27.82
2022-08-09T10:55:49.372Z,27.26
2022-08-09T10:58:33.970Z,27.14
2022-08-09T11:03:05.681Z,27.82
2022-08-09T11:04:31.360Z,27.86
2022-08-09T11:06:59.605Z,27.30
2022-08-09T11:09:41.182Z,27.32
2022-08-09T11:12:29.830Z,27.24
2022-08-09T11:14:58.843Z,27.59
2022-08-09T11:17:25.406Z,28.06
2022-08-09T11:20:20.298Z,28.18
2022-08-09T11:22:57.237Z,28.89
2022-08-09T11:25:47.823Z,29.14
2022-08-09T11:28:54.133Z,29.33
2022-08-09T11:31:48.782Z,29.30
2022-08-09T11:34:23.063Z,29.47
2022-08-09T11:36:49.923Z,29.85
2022-08-09T11:39:16.842Z,29.47
2022-08-09T11:41:43.797Z,29.51
2022-08-09T11:44:12.059Z,29.23
2022-08-09T11:46:57.603Z,28.75
2022-08-09T11:50:54.128Z,27.78
2022-08-09T11:53:57.861Z,27.31
2022-08-09T11:55:52.445Z,27.30
2022-08-09T11:58:30.190Z,27.48
2022-08-09T12:01:08.573Z,28.01
2022-08-09T12:03:57.018Z,28.63
2022-08-09T12:06:32.354Z,28.83
2022-08-09T12:09:01.201Z,28.63
2022-08-09T12:11:28.852Z,28.62
2022-08-09T12:14:09.787Z,28.38
2022-08-09T12:16:41.682Z,28.09
2022-08-09T12:19:12.211Z,27.90
2022-08-09T12:21:48.678Z,27.22
2022-08-09T12:24:24.912Z,27.68
2022-08-09T12:28:59.481Z,28.07
2022-08-09T12:30:04.391Z,27.91
2022-08-09T12:32:40.728Z,28.18
2022-08-09T12:35:10.930Z,28.51
2022-08-09T12:37:43.996Z,28.70
2022-08-09T12:40:18.922Z,28.70
2022-08-09T12:42:46.196Z,28.32
2022-08-09T12:45:33.736Z,28.00
2022-08-09T12:48:03.551Z,27.73
2022-08-09T12:50:30.921Z,27.60
2022-08-09T12:53:09.328Z,27.90
2022-08-09T12:56:13.964Z,28.27
2022-08-09T12:58:30.874Z,27.91
2022-08-09T13:00:58.495Z,27.78
2022-08-09T13:03:53.417Z,27.68
2022-08-09T13:06:25.501Z,27.55
2022-08-09T13:09:06.571Z,27.37
2022-08-09T13:11:39.603Z,27.45
2022-08-09T13:14:42.412Z,28.03
2022-08-09T13:17:08.342Z,28.53
2022-08-09T13:20:09.980Z,28.59
2022-08-09T13:23:00.551Z,28.53
2022-08-09T13:25:14.294Z,28.01
2022-08-09T13:27:48.636Z,27.97
2022-08-09T13:31:11.215Z,28.08
2022-08-09T13:33:24.740Z,28.25
2022-08-09T13:36:37.613Z,28.02
2022-08-09T13:39:00.938Z,27.74
2022-08-09T13:41:57.643Z,27.26
2022-08-09T13:44:16.819Z,26.92
2022-08-09T13:47:29.092Z,26.57
2022-08-09T13:49:39.620Z,26.20
2022-08-09T13:52:19.442Z,26.14
2022-08-09T13:54:59.186Z,26.08
2022-08-09T13:57:36.520Z,26.05
2022-08-09T14:00:42.777Z,26.09
2022-08-09T14:04:01.782Z,26.71
2022-08-09T14:06:19.390Z,27.14
2022-08-09T14:08:54.193Z,27.62
2022-08-09T14:11:22.022Z,27.39
2022-08-09T14:14:24.857Z,26.98
2022-08-09T14:16:36.754Z,26.89
2022-08-09T14:19:03.710Z,26.35
2022-08-09T14:21:32.243Z,26.40
2022-08-09T14:24:05.730Z,26.70
2022-08-09T14:26:46.100Z,27.16
2022-08-09T14:30:03.813Z,27.14
2022-08-09T14:32:11.103Z,27.08
2022-08-09T14:34:41.061Z,27.00
2022-08-09T14:37:08.518Z,26.84
2022-08-09T14:39:46.500Z,26.60
2022-08-09T14:42:30.232Z,26.77
2022-08-09T14:46:39.172Z,26.98
2022-08-09T14:47:56.930Z,27.13
2022-08-09T14:50:27.014Z,27.29
2022-08-09T14:52:53.677Z,27.13
2022-08-09T14:55:21.471Z,26.97
2022-08-09T14:57:48.941Z,26.78
2022-08-09T15:00:16.664Z,26.58
2022-08-09T15:02:47.419Z,26.55
2022-08-09T15:05:16.121Z,26.49
2022-08-09T15:07:45.540Z,26.42
2022-08-09T15:10:21.783Z,26.36
2022-08-09T15:12:55.038Z,26.31
2022-08-09T15:15:22.554Z,26.51
2022-08-09T15:17:52.463Z,26.77
2022-08-09T15:21:54.981Z,26.87
2022-08-09T15:24:01.647Z,26.83
2022-08-09T15:25:55.615Z,27.03
2022-08-09T15:28:28.087Z,26.98
2022-08-09T15:31:09.875Z,27.07
2022-08-09T15:34:16.258Z,27.07
2022-08-09T15:36:29.222Z,27.29
2022-08-09T15:39:00.631Z,27.41
2022-08-09T15:41:31.758Z,27.58
2022-08-09T15:44:02.549Z,27.63
2022-08-09T15:46:34.490Z,27.49
2022-08-09T15:49:22.095Z,27.55
2022-08-09T15:52:03.376Z,27.56
2022-08-09T15:54:49.524Z,27.77
2022-08-09T15:57:18.947Z,27.79
2022-08-09T16:00:26.189Z,27.83
2022-08-09T16:02:54.896Z,27.49
2022-08-09T16:05:26.683Z,27.47
2022-08-09T16:08:29.906Z,27.28
2022-08-09T16:10:58.179Z,27.24
2022-08-09T16:14:03.511Z,27.17
2022-08-09T16:16:17.060Z,26.99
2022-08-09T16:18:45.338Z,26.90
2022-08-09T16:21:17.206Z,26.70
2022-08-09T16:23:55.522Z,26.54
2022-08-09T16:26:33.902Z,26.47
2022-08-09T16:29:05.946Z,26.46
2022-08-09T16:32:18.804Z,26.22
2022-08-09T16:34:24.761Z,26.09
2022-08-09T16:36:51.607Z,25.90
2022-08-09T16:39:18.266Z,25.85
2022-08-09T16:42:04.239Z,25.65
2022-08-09T16:44:32.511Z,25.43
2022-08-09T16:47:03.940Z,25.12
2022-08-09T16:50:30.207Z,24.93
2022-08-09T16:52:33.199Z,24.85
2022-08-09T16:55:00.073Z,24.63
2022-08-09T16:57:26.697Z,24.50
2022-08-09T17:00:14.760Z,24.28
2022-08-09T17:02:42.707Z,24.26
2022-08-09T17:05:14.440Z,24.21
2022-08-09T17:08:45.319Z,24.10
2022-08-09T17:10:43.902Z,24.11
2022-08-09T17:13:11.669Z,24.01
2022-08-09T17:15:58.874Z,23.99
2022-08-09T17:18:30.041Z,23.97
2022-08-09T17:20:57.958Z,23.91
2022-08-09T17:24:19.985Z,23.80
2022-08-09T17:26:12.394Z,23.66
2022-08-09T17:28:39.212Z,23.61
2022-08-09T17:31:05.875Z,23.53
2022-08-09T17:33:37.724Z,23.43
2022-08-09T17:36:05.083Z,23.40
2022-08-09T17:38:37.116Z,23.39
2022-08-09T17:41:05.858Z,23.29
2022-08-09T17:43:36.990Z,23.25
2022-08-09T17:46:06.979Z,23.16
2022-08-09T17:48:39.066Z,23.10
2022-08-09T17:51:18.437Z,22.99
2022-08-09T17:53:52.115Z,22.99
2022-08-09T17:56:27.193Z,22.85
2022-08-09T17:59:11.290Z,22.78
2022-08-09T18:01:58.163Z,22.66
2022-08-09T18:04:26.458Z,22.62
2022-08-09T18:06:54.852Z,22.56
2022-08-09T18:09:23.513Z,22.45
2022-08-09T18:12:10.056Z,22.36
2022-08-09T18:14:49.495Z,22.32
2022-08-09T18:17:18.627Z,22.31
2022-08-09T18:20:56.209Z,22.17
2022-08-09T18:22:33.949Z,21.99
2022-08-09T18:25:00.957Z,21.95
2022-08-09T18:27:49.100Z,21.90
2022-08-09T18:30:42.022Z,21.75
2022-08-09T18:33:02.281Z,21.71
2022-08-09T18:35:58.230Z,21.61
2022-08-09T18:38:26.068Z,21.58
2022-08-09T18:40:55.438Z,21.45
2022-08-09T18:43:23.280Z,21.34
2022-08-09T18:46:47.375Z,21.26
2022-08-09T18:48:36.889Z,21.08
2022-08-09T18:51:03.618Z,20.97
2022-08-09T18:53:56.544Z,20.93
2022-08-09T18:56:27.164Z,20.77
2022-08-09T18:58:55.741Z,20.60
2022-08-09T19:01:23.154Z,20.56
2022-08-09T19:04:01.307Z,20.35
2022-08-09T19:06:34.332Z,20.25
2022-08-09T19:09:04.699Z,20.11
2022-08-09T19:11:37.649Z,19.95
2022-08-09T19:14:06.189Z,19.84
2022-08-09T19:16:36.234Z,19.67
2022-08-09T19:19:25.299Z,19.53
2022-08-09T19:22:04.765Z,19.34
2022-08-09T19:25:07.218Z,19.23
2022-08-09T19:27:21.499Z,19.09
2022-08-09T19:30:25.061Z,19.00
2022-08-09T19:32:35.963Z,18.86
2022-08-09T19:35:04.397Z,18.77
2022-08-09T19:37:40.923Z,18.68
2022-08-09T19:40:19.031Z,18.56
2022-08-09T19:42:49.697Z,18.48
2022-08-09T19:45:16.741Z,18.34
2022-08-09T19:47:44.477Z,18.28
2022-08-09T19:50:51.157Z,18.19
2022-08-09T19:52:59.470Z,18.10
2022-08-09T19:55:53.331Z,18.07
2022-08-09T19:58:29.748Z,17.93
2022-08-09T20:00:57.689Z,17.82
2022-08-09T20:04:16.942Z,17.72
2022-08-09T20:06:23.313Z,17.70
2022-08-09T20:08:56.824Z,17.61
2022-08-09T20:11:26.598Z,17.53
2022-08-09T20:13:56.912Z,17.44
2022-08-09T20:16:35.772Z,17.36
2022-08-09T20:19:48.775Z,17.24
2022-08-09T20:21:55.237Z,17.14
2022-08-09T20:24:31.918Z,17.09
2022-08-09T20:27:01.123Z,17.04
2022-08-09T20:29:32.614Z,16.94
2022-08-09T20:32:29.117Z,16.87
2022-08-09T20:34:55.099Z,16.79
2022-08-09T20:37:22.492Z,16.73
2022-08-09T20:40:15.255Z,16.63
2022-08-09T20:42:37.727Z,16.55
2022-08-09T20:45:57.048Z,16.49
2022-08-09T20:47:52.400Z,16.44
2022-08-09T20:50:48.144Z,16.39
2022-08-09T20:53:35.756Z,16.29
2022-08-09T20:56:02.345Z,16.25
2022-08-09T20:58:33.122Z,16.22
2022-08-09T21:01:33.487Z,16.10
2022-08-09T21:05:49.422Z,16.05
2022-08-09T21:06:42.482Z,15.98
2022-08-09T21:09:24.764Z,15.93
2022-08-09T21:14:37.009Z,15.77
2022-08-09T21:18:22.981Z,15.73
2022-08-09T21:20:19.619Z,15.64
2022-08-09T21:22:41.683Z,15.64
2022-08-09T21:25:27.948Z,15.55
2022-08-09T21:28:07.088Z,15.49
2022-08-09T21:30:40.404Z,15.44
2022-08-09T21:33:08.425Z,15.45
2022-08-09T21:35:41.027Z,15.37
2022-08-09T21:38:21.091Z,15.37
2022-08-09T21:40:58.794Z,15.30
2022-08-09T21:43:56.095Z,15.25
2022-08-09T21:46:13.658Z,15.16
2022-08-09T21:48:42.729Z,15.11
2022-08-09T21:51:24.180Z,15.05
2022-08-09T21:53:54.914Z,14.97
2022-08-09T21:56:42.998Z,14.95
2022-08-09T21:59:09.422Z,14.88
2022-08-09T22:01:58.991Z,14.83
2022-08-09T22:04:55.469Z,14.74
2022-08-09T22:07:14.326Z,14.72
2022-08-09T22:09:50.630Z,14.67
2022-08-09T22:12:30.604Z,14.60
2022-08-09T22:14:58.129Z,14.62
2022-08-09T22:17:24.839Z,14.57
2022-08-09T22:19:59.856Z,14.54
2022-08-09T22:22:28.327Z,14.46
2022-08-09T22:26:07.872Z,14.42
2022-08-09T22:27:42.238Z,14.37
2022-08-09T22:30:09.813Z,14.32
2022-08-09T22:32:37.585Z,14.26
2022-08-09T22:36:03.348Z,14.21
2022-08-09T22:38:07.045Z,14.15
2022-08-09T22:40:35.481Z,14.11
2022-08-09T22:43:08.647Z,14.06
2022-08-09T22:48:12.676Z,14.02
2022-08-09T22:48:36.208Z,13.95
2022-08-09T22:51:10.963Z,13.92
2022-08-09T22:54:02.474Z,13.88
2022-08-09T22:56:33.773Z,13.83
2022-08-09T22:59:06.032Z,13.80
2022-08-09T23:01:49.040Z,13.74
2022-08-09T23:04:15.823Z,13.72
2022-08-09T23:07:02.443Z,13.70
2022-08-09T23:09:31.874Z,13.65
2022-08-09T23:12:02.765Z,13.62
2022-08-09T23:14:30.392Z,13.60
2022-08-09T23:17:10.269Z,13.57
2022-08-09T23:20:06.739Z,13.55
2022-08-09T23:22:23.585Z,13.49
2022-08-09T23:24:50.254Z,13.44
2022-08-09T23:27:16.923Z,13.44
2022-08-09T23:29:43.686Z,13.40
2022-08-09T23:32:10.416Z,13.32
2022-08-09T23:34:39.338Z,13.32
2022-08-09T23:37:06.322Z,13.28
2022-08-09T23:39:33.184Z,13.18
2022-08-09T23:42:00.066Z,13.16
2022-08-09T23:44:26.777Z,13.16
2022-08-09T23:46:57.486Z,13.10
2022-08-09T23:49:25.526Z,13.07
2022-08-09T23:51:53.055Z,13.07
2022-08-09T23:54:20.572Z,13.02
2022-08-09T23:56:54.557Z,13.02
2022-08-09T23:59:23.225Z,12.97
